sensor_id;sensor_type;location;lat;lon;timestamp;pressure;altitude;pressure_sealevel;temperature;humidity
61906;BME280;47863;55.766;37.672;2023-09-18T00:00:45;100408.91;;;12.40;63.06
61906;BME280;47863;55.766;37.672;2023-09-18T00:03:11;100416.69;;;12.52;63.22
61906;BME280;47863;55.766;37.672;2023-09-18T00:05:37;100425.50;;;12.62;63.05
61906;BME280;47863;55.766;37.672;2023-09-18T00:08:02;100416.81;;;12.68;63.02
61906;BME280;47863;55.766;37.672;2023-09-18T00:10:28;100411.78;;;12.73;62.72
61906;BME280;47863;55.766;37.672;2023-09-18T00:12:57;100421.06;;;12.87;62.79
61906;BME280;47863;55.766;37.672;2023-09-18T00:15:23;100406.13;;;12.84;62.77
61906;BME280;47863;55.766;37.672;2023-09-18T00:17:49;100417.97;;;13.00;62.48
61906;BME280;47863;55.766;37.672;2023-09-18T00:20:15;100417.47;;;13.04;63.32
61906;BME280;47863;55.766;37.672;2023-09-18T00:22:43;100416.28;;;13.07;63.36
61906;BME280;47863;55.766;37.672;2023-09-18T00:25:09;100413.59;;;13.07;63.14
61906;BME280;47863;55.766;37.672;2023-09-18T00:27:34;100401.31;;;13.04;63.51
61906;BME280;47863;55.766;37.672;2023-09-18T00:30:04;100395.28;;;13.02;63.11
61906;BME280;47863;55.766;37.672;2023-09-18T00:32:32;100415.63;;;13.05;63.26
61906;BME280;47863;55.766;37.672;2023-09-18T00:34:57;100423.69;;;13.05;63.69
61906;BME280;47863;55.766;37.672;2023-09-18T00:37:23;100394.03;;;12.88;63.15
61906;BME280;47863;55.766;37.672;2023-09-18T00:39:51;100414.59;;;12.98;64.04
61906;BME280;47863;55.766;37.672;2023-09-18T00:42:17;100419.63;;;13.01;64.11
61906;BME280;47863;55.766;37.672;2023-09-18T00:44:44;100397.38;;;12.82;64.22
61906;BME280;47863;55.766;37.672;2023-09-18T00:47:10;100416.91;;;12.93;64.15
61906;BME280;47863;55.766;37.672;2023-09-18T00:49:38;100418.09;;;12.90;64.40
61906;BME280;47863;55.766;37.672;2023-09-18T00:52:06;100403.75;;;12.81;64.23
61906;BME280;47863;55.766;37.672;2023-09-18T00:54:33;100396.72;;;12.88;64.23
61906;BME280;47863;55.766;37.672;2023-09-18T00:56:59;100387.69;;;12.98;63.98
61906;BME280;47863;55.766;37.672;2023-09-18T00:59:25;100355.06;;;12.93;63.56
61906;BME280;47863;55.766;37.672;2023-09-18T01:01:51;100379.53;;;13.24;63.54
61906;BME280;47863;55.766;37.672;2023-09-18T01:04:18;100405.38;;;13.43;63.51
61906;BME280;47863;55.766;37.672;2023-09-18T01:06:44;100393.94;;;13.41;63.39
61906;BME280;47863;55.766;37.672;2023-09-18T01:09:10;100403.88;;;13.57;63.02
61906;BME280;47863;55.766;37.672;2023-09-18T01:16:44;100398.00;;;13.69;63.29
61906;BME280;47863;55.766;37.672;2023-09-18T01:19:15;100394.13;;;13.72;63.18
61906;BME280;47863;55.766;37.672;2023-09-18T01:21:41;100383.19;;;13.74;62.95
61906;BME280;47863;55.766;37.672;2023-09-18T01:24:06;100353.22;;;13.52;62.84
61906;BME280;47863;55.766;37.672;2023-09-18T01:26:32;100385.72;;;13.75;62.84
61906;BME280;47863;55.766;37.672;2023-09-18T01:28:57;100382.88;;;13.77;62.78
61906;BME280;47863;55.766;37.672;2023-09-18T01:31:23;100370.75;;;13.73;63.00
61906;BME280;47863;55.766;37.672;2023-09-18T01:33:50;100375.63;;;13.77;63.25
61906;BME280;47863;55.766;37.672;2023-09-18T01:36:16;100379.81;;;13.72;63.24
61906;BME280;47863;55.766;37.672;2023-09-18T01:38:42;100349.84;;;13.50;63.58
61906;BME280;47863;55.766;37.672;2023-09-18T01:41:09;100366.16;;;13.48;63.54
61906;BME280;47863;55.766;37.672;2023-09-18T01:43:35;100373.09;;;13.51;63.42
61906;BME280;47863;55.766;37.672;2023-09-18T01:46:01;100363.66;;;13.47;63.98
61906;BME280;47863;55.766;37.672;2023-09-18T01:48:26;100370.69;;;13.40;63.99
61906;BME280;47863;55.766;37.672;2023-09-18T01:50:52;100363.28;;;13.34;63.75
61906;BME280;47863;55.766;37.672;2023-09-18T01:53:17;100367.31;;;13.29;64.66
61906;BME280;47863;55.766;37.672;2023-09-18T01:55:43;100356.00;;;13.18;64.66
61906;BME280;47863;55.766;37.672;2023-09-18T01:58:09;100351.28;;;13.12;64.88
61906;BME280;47863;55.766;37.672;2023-09-18T02:00:35;100362.56;;;13.15;64.88
61906;BME280;47863;55.766;37.672;2023-09-18T02:03:00;100352.78;;;13.14;64.62
61906;BME280;47863;55.766;37.672;2023-09-18T02:05:26;100353.47;;;13.16;65.07
61906;BME280;47863;55.766;37.672;2023-09-18T02:07:51;100348.91;;;13.17;64.60
61906;BME280;47863;55.766;37.672;2023-09-18T02:10:17;100349.94;;;13.16;64.54
61906;BME280;47863;55.766;37.672;2023-09-18T02:12:44;100338.34;;;13.15;64.74
61906;BME280;47863;55.766;37.672;2023-09-18T02:15:09;100338.84;;;13.19;64.83
61906;BME280;47863;55.766;37.672;2023-09-18T02:17:36;100342.88;;;13.23;65.31
61906;BME280;47863;55.766;37.672;2023-09-18T02:20:03;100323.34;;;13.13;65.71
61906;BME280;47863;55.766;37.672;2023-09-18T02:22:36;100351.19;;;13.29;66.02
61906;BME280;47863;55.766;37.672;2023-09-18T02:25:01;100328.06;;;13.19;66.38
61906;BME280;47863;55.766;37.672;2023-09-18T02:27:29;100309.91;;;13.13;66.22
61906;BME280;47863;55.766;37.672;2023-09-18T02:29:55;100343.63;;;13.33;66.07
61906;BME280;47863;55.766;37.672;2023-09-18T02:32:21;100329.78;;;13.28;65.87
61906;BME280;47863;55.766;37.672;2023-09-18T02:34:46;100348.00;;;13.42;65.84
61906;BME280;47863;55.766;37.672;2023-09-18T02:37:12;100343.13;;;13.46;65.48
61906;BME280;47863;55.766;37.672;2023-09-18T02:39:37;100326.66;;;13.41;65.31
61906;BME280;47863;55.766;37.672;2023-09-18T02:42:03;100339.75;;;13.44;66.13
61906;BME280;47863;55.766;37.672;2023-09-18T02:44:29;100340.59;;;13.36;66.16
61906;BME280;47863;55.766;37.672;2023-09-18T02:46:54;100336.84;;;13.29;66.46
61906;BME280;47863;55.766;37.672;2023-09-18T02:49:20;100324.22;;;13.13;66.30
61906;BME280;47863;55.766;37.672;2023-09-18T02:51:46;100336.66;;;13.22;66.24
61906;BME280;47863;55.766;37.672;2023-09-18T02:54:12;100332.31;;;13.21;66.30
61906;BME280;47863;55.766;37.672;2023-09-18T02:56:37;100331.28;;;13.22;66.59
61906;BME280;47863;55.766;37.672;2023-09-18T02:59:04;100319.16;;;13.18;66.38
61906;BME280;47863;55.766;37.672;2023-09-18T03:01:29;100336.00;;;13.28;66.07
61906;BME280;47863;55.766;37.672;2023-09-18T03:03:55;100323.25;;;13.31;66.17
61906;BME280;47863;55.766;37.672;2023-09-18T03:06:21;100319.03;;;13.28;65.98
61906;BME280;47863;55.766;37.672;2023-09-18T03:08:47;100334.53;;;13.34;65.82
61906;BME280;47863;55.766;37.672;2023-09-18T03:11:13;100326.97;;;13.38;66.03
61906;BME280;47863;55.766;37.672;2023-09-18T03:13:43;100338.41;;;13.40;65.86
61906;BME280;47863;55.766;37.672;2023-09-18T03:16:11;100316.22;;;13.38;65.77
61906;BME280;47863;55.766;37.672;2023-09-18T03:18:37;100335.41;;;13.51;66.10
61906;BME280;47863;55.766;37.672;2023-09-18T03:21:02;100326.97;;;13.54;66.09
61906;BME280;47863;55.766;37.672;2023-09-18T03:23:28;100338.94;;;13.60;65.84
61906;BME280;47863;55.766;37.672;2023-09-18T03:25:53;100332.19;;;13.64;65.75
61906;BME280;47863;55.766;37.672;2023-09-18T03:28:19;100325.31;;;13.61;65.58
61906;BME280;47863;55.766;37.672;2023-09-18T03:30:45;100332.88;;;13.74;65.58
61906;BME280;47863;55.766;37.672;2023-09-18T03:33:11;100339.44;;;13.80;65.58
61906;BME280;47863;55.766;37.672;2023-09-18T03:35:50;100336.41;;;13.83;65.54
61906;BME280;47863;55.766;37.672;2023-09-18T03:38:15;100325.81;;;13.81;65.68
61906;BME280;47863;55.766;37.672;2023-09-18T03:40:41;100273.34;;;13.53;65.34
61906;BME280;47863;55.766;37.672;2023-09-18T03:43:07;100320.59;;;13.80;65.35
61906;BME280;47863;55.766;37.672;2023-09-18T03:45:33;100324.47;;;13.85;65.09
61906;BME280;47863;55.766;37.672;2023-09-18T03:47:58;100306.81;;;13.75;65.12
61906;BME280;47863;55.766;37.672;2023-09-18T03:50:24;100311.69;;;13.79;65.06
61906;BME280;47863;55.766;37.672;2023-09-18T03:52:49;100336.25;;;13.93;65.45
61906;BME280;47863;55.766;37.672;2023-09-18T03:55:15;100329.00;;;13.93;65.41
61906;BME280;47863;55.766;37.672;2023-09-18T03:57:42;100313.00;;;13.83;65.24
61906;BME280;47863;55.766;37.672;2023-09-18T04:00:08;100320.91;;;13.93;65.14
61906;BME280;47863;55.766;37.672;2023-09-18T04:02:34;100335.03;;;14.03;65.34
61906;BME280;47863;55.766;37.672;2023-09-18T04:05:00;100329.66;;;14.03;65.68
61906;BME280;47863;55.766;37.672;2023-09-18T04:07:26;100322.75;;;14.01;66.21
61906;BME280;47863;55.766;37.672;2023-09-18T04:09:51;100306.09;;;13.97;65.72
61906;BME280;47863;55.766;37.672;2023-09-18T04:12:17;100311.81;;;14.02;65.99
61906;BME280;47863;55.766;37.672;2023-09-18T04:14:43;100330.97;;;14.16;65.78
61906;BME280;47863;55.766;37.672;2023-09-18T04:17:10;100326.94;;;14.20;65.45
61906;BME280;47863;55.766;37.672;2023-09-18T04:19:35;100320.88;;;14.18;65.90
61906;BME280;47863;55.766;37.672;2023-09-18T04:22:01;100316.31;;;14.26;65.56
61906;BME280;47863;55.766;37.672;2023-09-18T04:24:26;100322.53;;;14.27;65.41
61906;BME280;47863;55.766;37.672;2023-09-18T04:26:52;100298.00;;;14.22;65.92
61906;BME280;47863;55.766;37.672;2023-09-18T04:29:19;100327.22;;;14.41;65.75
61906;BME280;47863;55.766;37.672;2023-09-18T04:31:45;100310.22;;;14.41;65.61
61906;BME280;47863;55.766;37.672;2023-09-18T04:34:11;100322.28;;;14.53;65.61
61906;BME280;47863;55.766;37.672;2023-09-18T04:36:37;100322.66;;;14.58;65.93
61906;BME280;47863;55.766;37.672;2023-09-18T04:39:06;100318.09;;;14.59;65.82
61906;BME280;47863;55.766;37.672;2023-09-18T04:41:32;100312.69;;;14.59;65.59
61906;BME280;47863;55.766;37.672;2023-09-18T04:43:58;100308.84;;;14.61;65.61
61906;BME280;47863;55.766;37.672;2023-09-18T04:46:24;100323.06;;;14.78;65.41
61906;BME280;47863;55.766;37.672;2023-09-18T04:48:50;100320.34;;;14.86;65.16
61906;BME280;47863;55.766;37.672;2023-09-18T04:51:16;100324.19;;;14.92;65.00
61906;BME280;47863;55.766;37.672;2023-09-18T04:53:41;100285.03;;;14.73;64.74
61906;BME280;47863;55.766;37.672;2023-09-18T04:56:08;100326.50;;;15.03;64.89
61906;BME280;47863;55.766;37.672;2023-09-18T04:58:35;100322.41;;;15.07;64.89
61906;BME280;47863;55.766;37.672;2023-09-18T05:01:03;100322.31;;;15.01;65.12
61906;BME280;47863;55.766;37.672;2023-09-18T05:03:32;100296.22;;;14.93;65.02
61906;BME280;47863;55.766;37.672;2023-09-18T05:05:58;100317.06;;;14.99;65.07
61906;BME280;47863;55.766;37.672;2023-09-18T05:08:23;100311.91;;;14.90;64.83
61906;BME280;47863;55.766;37.672;2023-09-18T05:10:49;100331.72;;;15.05;64.91
61906;BME280;47863;55.766;37.672;2023-09-18T05:13:16;100317.91;;;15.00;64.74
61906;BME280;47863;55.766;37.672;2023-09-18T05:15:41;100303.59;;;14.99;64.73
61906;BME280;47863;55.766;37.672;2023-09-18T05:18:07;100313.28;;;15.08;64.56
61906;BME280;47863;55.766;37.672;2023-09-18T05:20:34;100332.22;;;15.32;64.66
61906;BME280;47863;55.766;37.672;2023-09-18T05:23:00;100310.34;;;15.26;64.37
61906;BME280;47863;55.766;37.672;2023-09-18T05:25:29;100335.59;;;15.57;64.15
61906;BME280;47863;55.766;37.672;2023-09-18T05:27:58;100338.41;;;15.63;64.16
61906;BME280;47863;55.766;37.672;2023-09-18T05:30:30;100331.44;;;15.69;64.35
61906;BME280;47863;55.766;37.672;2023-09-18T05:32:58;100346.44;;;15.95;63.89
61906;BME280;47863;55.766;37.672;2023-09-18T05:35:35;100342.84;;;16.02;64.16
61906;BME280;47863;55.766;37.672;2023-09-18T05:38:02;100341.84;;;16.18;63.76
61906;BME280;47863;55.766;37.672;2023-09-18T05:40:28;100329.44;;;16.24;63.42
61906;BME280;47863;55.766;37.672;2023-09-18T05:42:55;100331.44;;;16.45;63.32
61906;BME280;47863;55.766;37.672;2023-09-18T05:45:22;100338.59;;;16.53;63.51
61906;BME280;47863;55.766;37.672;2023-09-18T05:47:48;100341.00;;;16.62;63.16
61906;BME280;47863;55.766;37.672;2023-09-18T05:50:14;100328.59;;;16.68;63.08
61906;BME280;47863;55.766;37.672;2023-09-18T05:52:42;100329.09;;;16.87;62.73
61906;BME280;47863;55.766;37.672;2023-09-18T05:55:08;100315.16;;;17.04;62.42
61906;BME280;47863;55.766;37.672;2023-09-18T05:57:34;100325.06;;;17.34;62.09
61906;BME280;47863;55.766;37.672;2023-09-18T06:00:00;100329.91;;;17.60;61.72
61906;BME280;47863;55.766;37.672;2023-09-18T06:02:26;100335.09;;;17.83;61.55
61906;BME280;47863;55.766;37.672;2023-09-18T06:04:56;100312.91;;;17.94;61.22
61906;BME280;47863;55.766;37.672;2023-09-18T06:07:24;100325.06;;;18.27;60.85
61906;BME280;47863;55.766;37.672;2023-09-18T06:09:50;100328.44;;;18.70;60.61
61906;BME280;47863;55.766;37.672;2023-09-18T06:12:15;100333.22;;;19.16;60.27
61906;BME280;47863;55.766;37.672;2023-09-18T06:14:41;100335.84;;;19.51;59.42
61906;BME280;47863;55.766;37.672;2023-09-18T06:17:08;100338.59;;;19.78;59.02
61906;BME280;47863;55.766;37.672;2023-09-18T06:19:35;100323.56;;;19.89;58.69
61906;BME280;47863;55.766;37.672;2023-09-18T06:22:01;100275.84;;;19.59;59.11
61906;BME280;47863;55.766;37.672;2023-09-18T06:24:27;100331.50;;;19.97;58.61
61906;BME280;47863;55.766;37.672;2023-09-18T06:26:53;100329.59;;;20.11;58.49
61906;BME280;47863;55.766;37.672;2023-09-18T06:29:19;100333.13;;;20.31;58.13
61906;BME280;47863;55.766;37.672;2023-09-18T06:31:45;100349.00;;;20.61;57.67
61906;BME280;47863;55.766;37.672;2023-09-18T06:34:10;100348.03;;;21.00;57.13
61906;BME280;47863;55.766;37.672;2023-09-18T06:36:36;100348.13;;;21.26;56.72
61906;BME280;47863;55.766;37.672;2023-09-18T06:39:02;100344.59;;;21.18;56.78
61906;BME280;47863;55.766;37.672;2023-09-18T06:41:28;100344.34;;;20.75;57.29
61906;BME280;47863;55.766;37.672;2023-09-18T06:43:54;100335.03;;;20.24;57.88
61906;BME280;47863;55.766;37.672;2023-09-18T06:46:19;100343.63;;;19.88;58.57
61906;BME280;47863;55.766;37.672;2023-09-18T06:48:45;100355.25;;;19.48;58.91
61906;BME280;47863;55.766;37.672;2023-09-18T06:51:15;100351.16;;;19.11;59.34
61906;BME280;47863;55.766;37.672;2023-09-18T06:53:40;100343.38;;;18.94;59.38
61906;BME280;47863;55.766;37.672;2023-09-18T06:56:06;100308.56;;;18.63;59.41
61906;BME280;47863;55.766;37.672;2023-09-18T06:58:32;100355.78;;;18.75;59.38
61906;BME280;47863;55.766;37.672;2023-09-18T07:00:57;100358.63;;;18.60;59.37
61906;BME280;47863;55.766;37.672;2023-09-18T07:03:23;100357.13;;;18.51;59.44
61906;BME280;47863;55.766;37.672;2023-09-18T07:05:49;100363.09;;;18.40;59.62
61906;BME280;47863;55.766;37.672;2023-09-18T07:08:15;100371.38;;;18.32;59.71
61906;BME280;47863;55.766;37.672;2023-09-18T07:10:45;100363.59;;;18.22;59.66
61906;BME280;47863;55.766;37.672;2023-09-18T07:13:11;100359.56;;;18.11;59.50
61906;BME280;47863;55.766;37.672;2023-09-18T07:15:39;100387.75;;;18.17;59.79
61906;BME280;47863;55.766;37.672;2023-09-18T07:18:04;100320.06;;;17.80;59.64
61906;BME280;47863;55.766;37.672;2023-09-18T07:20:30;100371.50;;;18.17;59.69
61906;BME280;47863;55.766;37.672;2023-09-18T07:22:57;100375.22;;;18.16;59.51
61906;BME280;47863;55.766;37.672;2023-09-18T07:25:23;100385.44;;;18.14;59.54
61906;BME280;47863;55.766;37.672;2023-09-18T07:27:48;100391.63;;;18.08;59.77
61906;BME280;47863;55.766;37.672;2023-09-18T07:30:15;100375.00;;;17.89;59.84
61906;BME280;47863;55.766;37.672;2023-09-18T07:32:42;100353.69;;;17.64;60.23
61906;BME280;47863;55.766;37.672;2023-09-18T07:35:09;100363.59;;;17.57;60.04
61906;BME280;47863;55.766;37.672;2023-09-18T07:37:35;100395.06;;;17.73;60.40
61906;BME280;47863;55.766;37.672;2023-09-18T07:40:06;100400.25;;;17.75;60.32
61906;BME280;47863;55.766;37.672;2023-09-18T07:42:31;100384.59;;;17.70;60.02
61906;BME280;47863;55.766;37.672;2023-09-18T07:44:57;100379.63;;;17.74;59.98
61906;BME280;47863;55.766;37.672;2023-09-18T07:47:23;100375.72;;;17.83;59.87
61906;BME280;47863;55.766;37.672;2023-09-18T07:49:49;100395.13;;;18.01;59.71
61906;BME280;47863;55.766;37.672;2023-09-18T07:52:17;100403.75;;;18.12;59.63
61906;BME280;47863;55.766;37.672;2023-09-18T07:54:43;100387.63;;;18.03;59.56
61906;BME280;47863;55.766;37.672;2023-09-18T07:57:08;100401.97;;;18.19;59.61
61906;BME280;47863;55.766;37.672;2023-09-18T07:59:36;100410.59;;;18.29;59.54
61906;BME280;47863;55.766;37.672;2023-09-18T08:02:02;100406.09;;;18.43;59.49
61906;BME280;47863;55.766;37.672;2023-09-18T08:04:31;100367.41;;;18.34;59.47
61906;BME280;47863;55.766;37.672;2023-09-18T08:06:56;100398.75;;;18.72;59.01
61906;BME280;47863;55.766;37.672;2023-09-18T08:09:22;100335.13;;;18.39;58.64
61906;BME280;47863;55.766;37.672;2023-09-18T08:11:48;100386.47;;;18.76;59.13
61906;BME280;47863;55.766;37.672;2023-09-18T08:14:15;100400.41;;;18.94;59.11
61906;BME280;47863;55.766;37.672;2023-09-18T08:16:42;100393.72;;;18.97;58.96
61906;BME280;47863;55.766;37.672;2023-09-18T08:19:07;100387.84;;;18.93;58.89
61906;BME280;47863;55.766;37.672;2023-09-18T08:21:33;100392.06;;;19.02;58.86
61906;BME280;47863;55.766;37.672;2023-09-18T08:23:59;100404.84;;;19.09;58.91
61906;BME280;47863;55.766;37.672;2023-09-18T08:26:24;100397.78;;;19.14;58.74
61906;BME280;47863;55.766;37.672;2023-09-18T08:28:52;100406.16;;;19.19;58.62
61906;BME280;47863;55.766;37.672;2023-09-18T08:31:18;100412.84;;;19.24;58.80
61906;BME280;47863;55.766;37.672;2023-09-18T08:33:44;100402.63;;;19.26;58.69
61906;BME280;47863;55.766;37.672;2023-09-18T08:36:09;100402.44;;;19.34;58.62
61906;BME280;47863;55.766;37.672;2023-09-18T08:38:35;100384.44;;;19.26;58.33
61906;BME280;47863;55.766;37.672;2023-09-18T08:41:01;100384.25;;;19.41;58.38
61906;BME280;47863;55.766;37.672;2023-09-18T08:43:27;100365.72;;;19.58;58.13
61906;BME280;47863;55.766;37.672;2023-09-18T08:45:55;100389.03;;;20.00;57.87
61906;BME280;47863;55.766;37.672;2023-09-18T08:48:28;100388.16;;;20.20;57.48
61906;BME280;47863;55.766;37.672;2023-09-18T08:51:05;100372.47;;;20.29;57.23
61906;BME280;47863;55.766;37.672;2023-09-18T08:53:32;100364.75;;;20.32;57.12
61906;BME280;47863;55.766;37.672;2023-09-18T08:56:02;100373.69;;;20.53;56.89
61906;BME280;47863;55.766;37.672;2023-09-18T08:58:33;100373.06;;;20.57;56.50
61906;BME280;47863;55.766;37.672;2023-09-18T09:01:04;100374.53;;;20.67;56.09
61906;BME280;47863;55.766;37.672;2023-09-18T09:03:31;100355.06;;;20.56;56.52
61906;BME280;47863;55.766;37.672;2023-09-18T09:05:59;100378.50;;;20.71;56.86
61906;BME280;47863;55.766;37.672;2023-09-18T09:08:30;100385.84;;;20.70;56.48
61906;BME280;47863;55.766;37.672;2023-09-18T09:10:55;100388.78;;;20.62;56.37
61906;BME280;47863;55.766;37.672;2023-09-18T09:13:24;100391.50;;;20.62;56.62
61906;BME280;47863;55.766;37.672;2023-09-18T09:15:56;100395.06;;;20.63;56.71
61906;BME280;47863;55.766;37.672;2023-09-18T09:18:23;100399.88;;;20.54;56.86
61906;BME280;47863;55.766;37.672;2023-09-18T09:21:00;100392.56;;;20.34;56.92
61906;BME280;47863;55.766;37.672;2023-09-18T09:23:28;100387.97;;;20.21;56.95
61906;BME280;47863;55.766;37.672;2023-09-18T09:26:11;100380.66;;;20.09;57.15
61906;BME280;47863;55.766;37.672;2023-09-18T09:28:37;100389.63;;;19.96;57.37
61906;BME280;47863;55.766;37.672;2023-09-18T09:31:03;100410.97;;;19.86;57.46
61906;BME280;47863;55.766;37.672;2023-09-18T09:33:30;100411.09;;;19.57;57.76
61906;BME280;47863;55.766;37.672;2023-09-18T09:35:56;100412.03;;;19.30;58.34
61906;BME280;47863;55.766;37.672;2023-09-18T09:38:28;100403.31;;;18.93;58.65
61906;BME280;47863;55.766;37.672;2023-09-18T09:40:57;100423.91;;;18.80;59.02
61906;BME280;47863;55.766;37.672;2023-09-18T09:43:25;100412.69;;;18.62;59.15
61906;BME280;47863;55.766;37.672;2023-09-18T09:45:57;100432.44;;;18.49;59.38
61906;BME280;47863;55.766;37.672;2023-09-18T09:48:23;100433.94;;;18.30;59.84
61906;BME280;47863;55.766;37.672;2023-09-18T09:50:51;100405.78;;;18.03;59.85
61906;BME280;47863;55.766;37.672;2023-09-18T09:53:17;100422.47;;;18.07;60.16
61906;BME280;47863;55.766;37.672;2023-09-18T09:55:44;100406.44;;;18.05;60.19
61906;BME280;47863;55.766;37.672;2023-09-18T09:58:11;100381.16;;;18.04;60.11
61906;BME280;47863;55.766;37.672;2023-09-18T10:00:46;100395.59;;;18.33;59.89
61906;BME280;47863;55.766;37.672;2023-09-18T10:03:15;100374.00;;;18.47;59.49
61906;BME280;47863;55.766;37.672;2023-09-18T10:05:42;100399.66;;;18.79;59.16
61906;BME280;47863;55.766;37.672;2023-09-18T10:08:17;100398.34;;;19.03;59.38
61906;BME280;47863;55.766;37.672;2023-09-18T10:10:46;100399.66;;;19.20;59.08
61906;BME280;47863;55.766;37.672;2023-09-18T10:13:55;100404.78;;;19.44;58.87
61906;BME280;47863;55.766;37.672;2023-09-18T10:16:14;100396.72;;;19.77;58.31
61906;BME280;47863;55.766;37.672;2023-09-18T10:19:11;100409.31;;;20.31;57.80
61906;BME280;47863;55.766;37.672;2023-09-18T10:24:28;100419.06;;;20.92;56.73
61906;BME280;47863;55.766;37.672;2023-09-18T10:27:00;100422.25;;;20.89;57.17
61906;BME280;47863;55.766;37.672;2023-09-18T10:29:27;100406.75;;;20.76;57.25
61906;BME280;47863;55.766;37.672;2023-09-18T10:31:54;100393.19;;;20.50;57.60
61906;BME280;47863;55.766;37.672;2023-09-18T10:34:22;100420.59;;;20.35;58.11
61906;BME280;47863;55.766;37.672;2023-09-18T10:36:50;100422.69;;;20.06;58.60
61906;BME280;47863;55.766;37.672;2023-09-18T10:39:16;100410.56;;;20.09;58.69
61906;BME280;47863;55.766;37.672;2023-09-18T10:41:51;100421.03;;;20.38;57.99
61906;BME280;47863;55.766;37.672;2023-09-18T10:44:18;100417.66;;;20.56;57.76
61906;BME280;47863;55.766;37.672;2023-09-18T10:46:48;100400.94;;;20.46;57.50
61906;BME280;47863;55.766;37.672;2023-09-18T10:49:15;100418.72;;;20.49;57.80
61906;BME280;47863;55.766;37.672;2023-09-18T10:51:41;100408.66;;;20.29;58.20
61906;BME280;47863;55.766;37.672;2023-09-18T10:54:13;100419.34;;;20.17;58.21
61906;BME280;47863;55.766;37.672;2023-09-18T10:56:42;100418.09;;;20.20;58.40
61906;BME280;47863;55.766;37.672;2023-09-18T10:59:08;100371.66;;;20.15;58.15
61906;BME280;47863;55.766;37.672;2023-09-18T11:01:36;100407.00;;;20.48;57.67
61906;BME280;47863;55.766;37.672;2023-09-18T11:04:07;100393.41;;;20.35;57.95
61906;BME280;47863;55.766;37.672;2023-09-18T11:09:27;100386.09;;;20.09;58.31
61906;BME280;47863;55.766;37.672;2023-09-18T11:14:43;100403.25;;;20.03;58.49
61906;BME280;47863;55.766;37.672;2023-09-18T11:20:18;100395.69;;;19.71;58.94
61906;BME280;47863;55.766;37.672;2023-09-18T11:22:47;100409.81;;;19.60;59.20
61906;BME280;47863;55.766;37.672;2023-09-18T11:25:35;100405.81;;;19.42;59.34
61906;BME280;47863;55.766;37.672;2023-09-18T11:28:14;100402.44;;;19.34;59.33
61906;BME280;47863;55.766;37.672;2023-09-18T11:30:56;100411.66;;;19.39;59.26
61906;BME280;47863;55.766;37.672;2023-09-18T11:33:40;100401.00;;;19.45;59.38
61906;BME280;47863;55.766;37.672;2023-09-18T11:36:28;100418.19;;;19.58;58.47
61906;BME280;47863;55.766;37.672;2023-09-18T11:38:59;100416.16;;;19.74;58.31
61906;BME280;47863;55.766;37.672;2023-09-18T11:41:28;100414.31;;;19.88;58.58
61906;BME280;47863;55.766;37.672;2023-09-18T11:46:38;100390.03;;;19.73;57.92
61906;BME280;47863;55.766;37.672;2023-09-18T11:49:09;100420.31;;;19.70;58.54
61906;BME280;47863;55.766;37.672;2023-09-18T11:51:36;100402.44;;;19.40;58.91
61906;BME280;47863;55.766;37.672;2023-09-18T11:54:03;100419.75;;;19.33;59.15
61906;BME280;47863;55.766;37.672;2023-09-18T11:56:33;100420.75;;;19.18;59.46
61906;BME280;47863;55.766;37.672;2023-09-18T11:58:58;100421.56;;;19.06;59.71
61906;BME280;47863;55.766;37.672;2023-09-18T12:01:25;100421.91;;;18.96;59.79
61906;BME280;47863;55.766;37.672;2023-09-18T12:04:03;100426.91;;;18.92;60.22
61906;BME280;47863;55.766;37.672;2023-09-18T12:06:40;100413.69;;;18.82;59.80
61906;BME280;47863;55.766;37.672;2023-09-18T12:09:06;100418.28;;;18.82;59.69
61906;BME280;47863;55.766;37.672;2023-09-18T12:11:33;100420.84;;;18.90;59.74
61906;BME280;47863;55.766;37.672;2023-09-18T12:14:04;100418.97;;;18.97;59.52
61906;BME280;47863;55.766;37.672;2023-09-18T12:16:37;100420.50;;;19.07;59.31
61906;BME280;47863;55.766;37.672;2023-09-18T12:19:04;100414.06;;;19.21;59.29
61906;BME280;47863;55.766;37.672;2023-09-18T12:21:32;100420.06;;;19.65;58.59
61906;BME280;47863;55.766;37.672;2023-09-18T12:23:58;100412.44;;;20.01;58.12
61906;BME280;47863;55.766;37.672;2023-09-18T12:26:24;100418.28;;;20.32;57.48
61906;BME280;47863;55.766;37.672;2023-09-18T12:28:51;100398.19;;;20.39;57.46
61906;BME280;47863;55.766;37.672;2023-09-18T12:31:17;100405.53;;;20.39;57.48
61906;BME280;47863;55.766;37.672;2023-09-18T12:33:44;100422.91;;;20.18;57.78
61906;BME280;47863;55.766;37.672;2023-09-18T12:36:10;100420.56;;;19.88;58.61
61906;BME280;47863;55.766;37.672;2023-09-18T12:38:37;100405.03;;;19.62;58.79
61906;BME280;47863;55.766;37.672;2023-09-18T12:41:04;100411.91;;;19.51;59.28
61906;BME280;47863;55.766;37.672;2023-09-18T12:43:39;100415.38;;;19.32;59.26
61906;BME280;47863;55.766;37.672;2023-09-18T12:46:09;100424.13;;;19.27;59.44
61906;BME280;47863;55.766;37.672;2023-09-18T12:48:39;100427.88;;;19.19;59.45
61906;BME280;47863;55.766;37.672;2023-09-18T12:51:10;100426.19;;;19.12;59.60
61906;BME280;47863;55.766;37.672;2023-09-18T12:53:36;100429.91;;;19.11;59.67
61906;BME280;47863;55.766;37.672;2023-09-18T12:56:10;100416.75;;;19.08;59.57
61906;BME280;47863;55.766;37.672;2023-09-18T12:58:38;100406.03;;;18.99;59.30
61906;BME280;47863;55.766;37.672;2023-09-18T13:01:10;100434.69;;;19.02;59.65